Weather observations for the past three days for
Beaver Island, Beaver Island Airport
Imperial (Metric)
Date Time (edt) Wind (mph) Vis. (mi.) Weather Sky Cond. Temperature (ºF) Relative Humidity Wind Chill (°F) Heat Index (°F) Pressure Precipitation (in)
Air Dwpt 6 hour altimeter (in) sea level (mb) 1 hr 3 hr 6 hr
Max. Min.
01 16:35 W 8 10.00 Fair CLR 86 68 55% 89 29.88 0.0
01 16:15 SW 7 10.00 Fair CLR 84.2 69.8 62% 88 29.89 0.0
01 15:55 SW 9 10.00 Fair CLR 84.2 69.8 62% 88 29.9 0.0
01 15:35 W 3 10.00 Fair CLR 84.2 66.2 55% 87 29.9 0.0
01 15:15 Vrbl 5 10.00 Fair CLR 84.2 71.6 66% 90 29.91 0.0
01 14:55 W 7 10.00 Fair CLR 84.2 69.8 62% 88 29.92 0.0
01 14:35 SW 6 10.00 Fair CLR 82.4 71.6 70% 87 29.93 0.0
01 14:15 W 6 10.00 Fair CLR 82.4 71.6 70% 87 29.93 0.0
01 13:55 Vrbl 6 10.00 Fair CLR 82.4 71.6 81.3 62.1 70% 87 29.93 0.0
01 13:35 W 8 10.00 Fair CLR 80.6 71.6 74% 85 29.94 0.0
01 13:15 W 8 10.00 A Few Clouds FEW018 78.8 71.6 79% 82 29.95 0.0
01 12:55 Vrbl 6 10.00 Partly Cloudy SCT018 78.8 71.6 79% 82 29.95 0.0
01 12:35 Vrbl 5 10.00 Fair CLR 78.8 71.6 79% 82 29.95 0.0
01 12:15 Vrbl 5 10.00 A Few Clouds FEW013 77 69.8 79% 79 29.95 0.0
01 11:55 NW 7 10.00 Partly Cloudy SCT011 77 69.8 79% 79 29.94 0.0
01 11:35 S 5 10.00 Partly Cloudy SCT009 77 71.6 83% 78 29.94 0.0
01 11:15 SE 5 10.00 A Few Clouds FEW005 73.4 69.8 89% 29.94 0.0
01 10:55 E 3 4.00 Fog/Mist BKN003 71.6 69.8 94% 29.94 0.0
01 10:35 E 7 10.00 Overcast OVC003 71.6 69.8 94% 29.93 0.0
01 10:15 E 6 9.00 Overcast OVC001 69.8 69.8 100% 29.93 0.0
01 09:55 E 3 2.00 Fog/Mist OVC001 68 68 100% 29.94 0.0
01 09:35 SE 3 2.00 Fog/Mist OVC001 68 68 100% 29.94 0.0
01 09:15 E 5 10.00 Mostly Cloudy BKN001 68 66.2 94% 29.94 0.0
01 08:55 SE 5 10.00 Partly Cloudy SCT001 66.2 66.2 100% 29.93 0.0
01 08:35 E 2 2.50 Fog/Mist BKN001 64.4 64.4 100% 29.93 0.0
01 08:15 E 2 0.50 Fog BKN001 64.4 64.4 100% 29.93 0.0
01 07:55 E 2 0.15 Fog VV000 62.6 62.6 65.7 60.8 100% 29.92 0.0
01 07:35 E 2 0.15 Fog VV000 62.6 62.6 100% 29.92 0.0
01 06:55 E 2 0.15 Fog BKN011 62.6 62.6 100% 29.92 0.0
01 06:35 E 1 0.25 Fog BKN011 60.8 60.8 100% 29.92 0.0
01 06:15 E 1 0.15 Fog VV000 62.6 62.6 100% 29.91 0.0
01 05:55 E 1 0.25 Fog OVC001 62.6 62.6 100% 29.91 0.0
01 05:35 E 1 0.25 Fog OVC001 62.6 62.6 100% 29.91 0.0
01 05:15 E 1 0.50 Fog BKN001 OVC024 62.6 62.6 100% 29.91 0.0
01 04:55 Calm 0.50 Fog SCT001 BKN024 OVC110 62.6 62.6 100% 29.91 0.0
01 04:35 N 1 1.25 Fog/Mist BKN120 62.6 62.6 100% 29.9 0.0
01 04:15 E 1 0.75 Fog/Mist SCT001 BKN110 64.4 64.4 100% 29.9 0.0
01 03:55 E 1 4.00 Fog/Mist SCT001 BKN110 64.4 64.4 100% 29.9 0.0
01 03:35 E 3 0.50 Fog OVC001 64.4 64.4 100% 29.89 0.0
01 03:15 E 2 1.00 Fog/Mist OVC001 64.4 64.4 100% 29.89 0.0
01 02:55 E 1 0.25 Fog VV002 64.4 64.4 100% 29.89 0.0
01 02:35 N 1 0.25 Fog VV002 64.4 64.4 100% 29.89 0.0
01 02:15 Calm 0.15 Fog VV000 64.4 64.4 100% 29.89 0.0
01 01:55 NE 1 0.15 Fog VV000 66.2 66.2 70 64.9 100% 29.89 0.0
01 01:35 SW 1 0.15 Fog VV000 66.2 66.2 100% 29.89 0.0
01 01:15 N 2 0.15 Fog VV000 68 66.2 94% 29.89 0.0
01 00:35 W 2 0.15 Fog VV000 68 68 100% 29.89 0.0
01 00:15 NW 2 0.25 Fog VV002 68 68 100% 29.89 0.0
31 23:55 W 2 0.50 Fog BKN002 68 68 100% 29.9 0.0
31 23:35 SW 3 1.50 Fog/Mist OVC002 68 68 100% 29.89 0.0
31 23:15 SW 3 5.00 Fog/Mist OVC002 68 68 100% 29.9 0.0
31 22:55 SE 1 5.00 Fog/Mist OVC002 68 68 100% 29.89 0.0
31 22:35 NW 2 5.00 Fog/Mist OVC002 66.2 66.2 100% 29.89 0.0
31 21:55 E 2 3.00 Fog/Mist OVC006 66.2 66.2 100% 29.88 0.0
31 21:35 E 1 3.00 Fog/Mist OVC006 66.2 66.2 100% 29.89 0.0
31 21:15 N 1 0.75 Fog/Mist OVC006 66.2 66.2 100% 29.88 0.0
31 20:55 E 1 4.00 Fog/Mist FEW008 66.2 66.2 100% 29.87 0.0
31 20:35 E 1 9.00 Fair CLR 68 68 100% 29.87 0.0
31 20:15 NE 3 10.00 Partly Cloudy SCT012 69.8 68 94% 29.86 0.0
31 19:55 NE 5 10.00 Overcast OVC012 69.8 68 81 69.8 94% 29.87 0.0
31 19:35 E 3 10.00 Partly Cloudy SCT012 69.8 68 94% 29.87 0.0
31 19:15 E 6 10.00 Fair CLR 69.8 68 94% 29.87 0.0
31 18:55 SE 6 10.00 Fair CLR 71.6 68 88% 29.86 0.0
31 18:35 E 6 10.00 Fair CLR 71.6 68 88% 29.85 0.0
31 18:15 E 7 10.00 Fair CLR 71.6 68 88% 29.85 0.0
31 17:55 E 7 10.00 Fair CLR 73.4 68 83% 29.86 0.0
31 17:35 E 8 10.00 Fair CLR 73.4 69.8 89% 29.86 0.0
31 17:15 E 9 10.00 Fair CLR 73.4 68 83% 29.86 0.0
31 16:55 E 10 10.00 Fair CLR 75.2 69.8 83% 75 29.85 0.0
31 16:35 E 9 10.00 Fair CLR 75.2 69.8 83% 75 29.85 0.0
31 16:15 E 9 10.00 Fair CLR 77 69.8 79% 79 29.85 0.0
31 15:55 E 9 9.00 Partly Cloudy FEW030 SCT070 77 69.8 79% 79 29.86 0.0
31 15:35 E 9 10.00 Mostly Cloudy BKN030 BKN070 77 69.8 79% 79 29.87 0.0
31 15:15 S 7 10.00 Partly Cloudy SCT070 78.8 69.8 74% 81 29.88 0.0
31 14:55 SE 10 G 16 10.00 Mostly Cloudy BKN070 80.6 69.8 70% 84 29.88 0.0
31 14:35 S 8 G 16 8.00 Fair CLR 78.8 69.8 74% 81 29.88 0.0
31 14:15 SE 9 10.00 Fair CLR 80.6 69.8 70% 84 29.88 0.0
31 13:55 SE 10 G 17 9.00 Partly Cloudy SCT060 78.8 69.8 79.7 68 74% 81 29.88 0.0
31 13:35 S 12 10.00 Overcast OVC050 78.8 69.8 74% 81 29.89 0.0
31 13:15 S 9 6.00 Overcast with Haze FEW011 OVC050 77 69.8 79% 79 29.89 0.0
31 12:55 Vrbl 7 10.00 Overcast BKN011 OVC050 75.2 69.8 83% 75 29.9 0.0
31 12:35 SE 10 G 16 10.00 Mostly Cloudy BKN011 BKN050 77 71.6 83% 78 29.9 0.0
31 12:15 S 8 10.00 Partly Cloudy SCT013 SCT055 77 71.6 83% 78 29.91 0.0
31 11:55 S 12 10.00 A Few Clouds FEW006 FEW013 77 71.6 83% 78 29.91 0.0
31 11:35 SE 8 10.00 Mostly Cloudy BKN006 75.2 71.6 89% 75 29.91 0.0
31 11:15 Vrbl 6 10.00 Overcast OVC004 73.4 71.6 94% 29.91 0.0
31 10:55 SE 8 G 17 10.00 Overcast OVC004 71.6 69.8 94% 29.91 0.0 0.01
31 10:35 S 6 7.00 Light Rain OVC004 71.6 69.8 94% 29.92 0.0
31 10:15 Vrbl 7 1.25 Fog/Mist OVC004 69.8 69.8 100% 29.93 0.0
31 09:55 SE 5 1.50 Light Rain Fog/Mist OVC004 69.8 69.8 100% 29.93 0.0
31 09:35 S 5 3.00 Fog/Mist OVC004 69.8 68 94% 29.94 0.0
31 09:15 S 6 2.00 Light Rain Fog/Mist OVC004 69.8 68 94% 29.94 0.0
31 08:55 S 5 3.00 Light Rain Fog/Mist FEW019 BKN065 OVC080 68 68 100% 29.94 0.0
31 08:35 Vrbl 3 3.00 Light Rain Fog/Mist BKN004 BKN028 OVC110 68 68 100% 29.94 0.0
31 08:15 Vrbl 3 4.00 Light Rain Fog/Mist OVC004 68 68 100% 29.94 0.0
31 07:55 S 3 4.00 Fog/Mist OVC002 68 68 68 65.8 100% 29.94 0.0 0.01
31 07:35 SE 5 3.00 Fog/Mist OVC002 68 68 100% 29.92 0.0
31 07:15 SE 8 4.00 Fog/Mist OVC002 68 68 100% 29.9 0.0
31 06:55 SE 10 5.00 Fog/Mist OVC002 68 68 100% 29.91 0.0 0.01
31 06:35 E 7 4.00 Fog/Mist OVC002 68 66.2 94% 29.91 0.0
31 06:15 SE 8 5.00 Light Rain Fog/Mist OVC002 68 66.2 94% 29.92 0.0
31 05:55 E 8 4.00 Light Rain Fog/Mist OVC002 66.2 66.2 100% 29.92 0.0 0.01
31 05:35 E 13 4.00 Light Rain Fog/Mist OVC004 66.2 66.2 100% 29.93 0.0
31 05:15 SE 7 3.00 Light Rain Fog/Mist OVC004 66.2 66.2 100% 29.96 0.0
31 04:55 E 7 6.00 Fog/Mist OVC004 66.2 66.2 100% 29.96 0.0
31 04:35 E 6 6.00 Fog/Mist OVC004 66.2 66.2 100% 29.97 0.0
31 04:15 E 7 6.00 Fog/Mist OVC004 66.2 66.2 100% 29.96 0.0
31 03:55 E 6 6.00 Fog/Mist OVC004 66.2 66.2 100% 29.97 0.0
31 03:35 E 5 6.00 Fog/Mist OVC004 66.2 66.2 100% 29.98 0.0
31 03:15 E 5 6.00 Fog/Mist OVC004 66.2 66.2 100% 29.97 0.0
31 02:55 E 7 6.00 Fog/Mist OVC004 66.2 66.2 100% 29.95 0.0
31 02:35 E 9 6.00 Fog/Mist OVC004 66.2 66.2 100% 29.96 0.0
31 02:15 E 8 7.00 Overcast OVC004 66.2 66.2 100% 29.96 0.0
31 01:55 E 8 7.00 Overcast BKN004 OVC007 66.2 66.2 66.6 65.7 100% 29.97 0.0
31 01:35 E 7 8.00 Mostly Cloudy BKN007 66.2 64.4 94% 29.97 0.0
31 01:15 E 9 8.00 Mostly Cloudy BKN009 66.2 64.4 94% 29.97 0.0
31 00:55 E 8 9.00 Overcast OVC009 66.2 66.2 100% 29.97 0.0
31 00:35 E 10 9.00 Overcast OVC009 66.2 64.4 94% 29.97 0.0
31 00:15 E 9 10.00 Overcast SCT009 SCT036 OVC050 66.2 64.4 94% 29.97 0.0
30 23:55 E 12 10.00 Overcast BKN036 OVC050 66.2 64.4 94% 29.97 0.0
30 23:35 E 10 9.00 Overcast BKN036 OVC050 66.2 64.4 94% 29.97 0.0
30 23:15 E 10 9.00 Mostly Cloudy BKN050 66.2 64.4 94% 29.97 0.0
30 22:55 E 10 G 16 10.00 Overcast FEW004 BKN050 OVC120 66.2 64.4 94% 29.97 0.0
30 22:35 E 12 9.00 Mostly Cloudy SCT004 BKN038 BKN050 66.2 64.4 94% 29.97 0.0
30 22:15 E 10 9.00 Overcast BKN004 BKN038 OVC050 66.2 64.4 94% 29.98 0.0
30 21:55 E 13 10.00 Overcast SCT004 BKN038 OVC050 66.2 64.4 94% 29.97 0.0
30 21:35 E 9 10.00 Overcast FEW004 SCT038 OVC050 66.2 64.4 94% 29.98 0.0
30 21:15 E 10 10.00 Overcast FEW004 SCT036 OVC050 66.2 64.4 94% 29.97 0.0
30 20:55 E 10 10.00 Overcast SCT004 BKN036 OVC050 66.2 64.4 94% 29.97 0.0
30 20:35 E 10 9.00 Overcast SCT004 OVC036 66.2 64.4 94% 29.96 0.0
30 20:15 E 9 10.00 Overcast FEW004 FEW017 OVC036 66.2 64.4 94% 29.96 0.0
30 19:55 E 9 8.00 Overcast FEW004 BKN017 OVC036 66.2 66.2 71.8 66.6 100% 29.96 0.0
30 19:35 E 8 9.00 Overcast SCT004 OVC017 66.2 66.2 100% 29.97 0.0
30 19:15 NE 6 6.00 Fog/Mist OVC004 66.2 66.2 100% 29.97 0.0
30 18:55 E 6 6.00 Fog/Mist OVC004 66.2 66.2 100% 29.97 0.0
30 18:35 E 8 5.00 Light Rain Fog/Mist OVC004 66.2 66.2 100% 29.97 0.0
30 18:15 E 9 4.00 Light Rain Fog/Mist OVC004 66.2 66.2 100% 29.97 0.0
30 17:55 E 9 4.00 Fog/Mist SCT004 OVC016 68 66.2 94% 29.97 0.0
30 17:35 E 9 10.00 Overcast OVC016 68 66.2 94% 29.97 0.0
30 17:15 E 6 10.00 Overcast FEW005 BKN016 OVC023 68 66.2 94% 29.97 0.0
30 16:55 E 7 10.00 Overcast FEW005 BKN023 OVC028 68 66.2 94% 29.97 0.0
30 16:35 E 8 10.00 Overcast FEW006 BKN013 OVC030 68 66.2 94% 29.97 0.0
30 16:15 E 9 10.00 Overcast BKN008 OVC013 68 66.2 94% 29.96 0.0
30 15:55 E 9 10.00 Overcast BKN008 OVC013 69.8 66.2 88% 29.96 0.0
30 15:35 E 8 10.00 Overcast FEW010 OVC013 69.8 66.2 88% 29.96 0.0
30 15:15 E 8 10.00 Overcast SCT010 OVC016 69.8 66.2 88% 29.96 0.0
30 14:35 E 8 10.00 Overcast OVC014 69.8 66.2 88% 29.96 0.0
30 14:15 SE 7 10.00 Overcast OVC012 69.8 66.2 88% 29.97 0.0
30 13:55 E 8 10.00 Overcast OVC012 69.8 66.2 71.6 65.8 88% 29.96 0.0
30 13:35 E 5 10.00 Overcast OVC012 71.6 66.2 83% 29.96 0.0
30 13:15 Vrbl 2 10.00 Overcast OVC012 71.6 66.2 83% 29.96 0.0
30 12:55 Vrbl 3 10.00 Overcast OVC012 71.6 66.2 83% 29.96 0.0
30 12:35 Vrbl 6 10.00 Overcast BKN014 BKN021 OVC029 71.6 66.2 83% 29.96 0.0
30 12:15 S 6 10.00 Overcast BKN014 OVC022 69.8 66.2 88% 29.96 0.0
30 11:55 S 5 10.00 Overcast BKN014 OVC020 69.8 66.2 88% 29.96 0.0
30 11:35 S 6 10.00 Overcast SCT014 OVC020 69.8 66.2 88% 29.97 0.0
30 11:15 S 6 10.00 Overcast SCT013 OVC018 69.8 66.2 88% 29.97 0.0
30 10:55 Vrbl 5 10.00 Overcast BKN016 OVC024 68 66.2 94% 29.96 0.0
30 10:35 Vrbl 3 10.00 Overcast BKN023 OVC028 68 66.2 94% 29.96 0.0
30 10:15 S 5 10.00 Overcast BKN021 OVC027 68 64.4 88% 29.96 0.0
30 09:55 S 3 10.00 Overcast OVC019 66.2 64.4 94% 29.96 0.0
30 09:35 Vrbl 5 7.00 Overcast OVC019 66.2 64.4 94% 29.95 0.0
30 09:15 S 5 7.00 Overcast OVC021 66.2 64.4 94% 29.95 0.0
30 08:55 SE 7 8.00 Overcast OVC021 66.2 64.4 94% 29.95 0.0
30 08:35 SE 6 8.00 Overcast OVC021 66.2 64.4 94% 29.95 0.0
30 08:15 SE 6 7.00 Overcast OVC023 66.2 64.4 94% 29.95 0.0
30 07:55 S 7 10.00 Overcast OVC023 66.2 64.4 65.8 64.4 94% 29.95 0.0
30 07:35 Vrbl 7 10.00 Overcast OVC023 66.2 64.4 94% 29.94 0.0
30 07:15 SE 9 10.00 Overcast OVC027 66.2 64.4 94% 29.94 0.0
30 06:55 S 8 10.00 Overcast OVC029 66.2 62.6 88% 29.94 0.0
30 06:35 SE 6 10.00 Overcast OVC029 64.4 62.6 94% 29.94 0.0
30 06:15 Vrbl 6 10.00 Overcast OVC033 64.4 62.6 94% 29.94 0.0
30 05:55 S 6 10.00 Overcast OVC033 64.4 62.6 94% 29.94 0.0
30 05:35 SE 7 10.00 Overcast OVC033 64.4 62.6 94% 29.95 0.0
30 05:15 SE 8 10.00 Overcast OVC033 64.4 64.4 100% 29.95 0.0
30 04:55 SE 6 10.00 Overcast BKN033 OVC039 64.4 62.6 94% 29.95 0.0
30 04:35 E 9 10.00 Overcast OVC038 64.4 64.4 100% 29.96 0.0
30 04:15 SE 8 10.00 Overcast BKN040 OVC050 64.4 64.4 100% 29.97 0.0
30 03:55 SE 8 10.00 Overcast FEW044 BKN055 OVC080 64.4 64.4 100% 29.98 0.0
30 03:35 SE 9 10.00 Overcast FEW048 BKN055 OVC075 64.4 64.4 100% 29.98 0.0
30 03:15 SE 6 10.00 Overcast BKN055 BKN070 OVC085 64.4 64.4 100% 29.99 0.0
30 02:55 SE 7 10.00 Overcast OVC080 64.4 62.6 94% 29.99 0.0
30 02:35 SE 9 10.00 Overcast OVC080 64.4 62.6 94% 29.99 0.0
30 02:15 SE 10 10.00 Overcast FEW005 FEW060 OVC070 64.4 64.4 100% 30 0.0
30 01:55 S 10 10.00 Overcast BKN005 BKN060 OVC070 64.4 64.4 67.5 64.4 100% 30.02 0.0
30 01:35 S 7 10.00 Overcast SCT005 SCT046 OVC070 64.4 64.4 100% 30.03 0.0
30 01:15 SE 6 10.00 Light Rain FEW007 FEW046 OVC070 64.4 64.4 100% 30.03 0.0
30 00:55 Vrbl 2 10.00 Light Rain SCT005 BKN060 OVC070 64.4 64.4 100% 30.04 0.0 0.03
30 00:35 Vrbl 3 10.00 Light Rain SCT004 BKN050 OVC060 64.4 64.4 100% 30.04 0.0
30 00:15 SW 7 7.00 Light Rain Fog/Mist BKN004 BKN038 OVC060 64.4 64.4 100% 30.04 0.0
29 23:35 SW 10 G 17 10.00 Light Drizzle BKN006 OVC011 64.4 64.4 100% 30.04 0.0
29 23:15 SW 10 G 18 5.00 Light Rain Fog/Mist OVC006 66.2 64.4 94% 30.04 0.0
29 22:55 SW 8 4.00 Light Rain Fog/Mist SCT008 BKN028 OVC045 64.4 64.4 100% 30.05 0.0 0.04
29 22:35 SW 10 G 20 6.00 Light Rain Fog/Mist SCT006 BKN024 OVC085 64.4 64.4 100% 30.05 0.0
29 22:15 SW 12 5.00 Light Rain Fog/Mist BKN006 BKN018 OVC070 66.2 64.4 94% 30.05 0.0
29 21:55 SW 9 5.00 Light Rain Fog/Mist BKN006 OVC020 66.2 64.4 94% 30.05 0.0 0.01
29 21:35 SW 9 7.00 Light Rain BKN009 BKN017 OVC032 66.2 64.4 94% 30.04 0.0
29 21:15 SW 8 10.00 Overcast BKN030 OVC037 68 64.4 88% 30.04 0.0
29 20:55 SW 7 10.00 Overcast BKN030 OVC037 68 64.4 88% 30.03 0.0
29 20:35 SW 8 10.00 Overcast OVC031 68 62.6 83% 30.03 0.0
29 20:15 SW 9 10.00 Overcast BKN029 BKN046 OVC120 68 62.6 83% 30.02 0.0
29 19:55 SW 10 10.00 Overcast FEW041 FEW049 OVC120 68 64.4 72 67.5 88% 30.02 0.0
29 19:35 SW 12 10.00 Mostly Cloudy FEW011 SCT049 BKN120 68 64.4 88% 30.02 0.0
29 19:15 SW 9 10.00 Mostly Cloudy FEW055 BKN120 68 64.4 88% 30.02 0.0
29 18:55 SW 9 10.00 Overcast SCT043 BKN055 OVC120 68 64.4 88% 30.02 0.0
29 18:35 SW 10 10.00 Overcast OVC041 69.8 64.4 83% 30.03 0.0
29 18:15 SW 10 G 17 10.00 Overcast OVC041 69.8 64.4 83% 30.02 0.0
29 17:55 SW 14 G 21 10.00 Overcast BKN041 OVC110 69.8 66.2 88% 30.02 0.0
29 17:35 SW 12 G 18 10.00 Overcast SCT039 BKN046 OVC085 69.8 66.2 88% 30.02 0.0
29 17:15 SW 10 G 17 10.00 Overcast SCT055 BKN070 OVC085 71.6 66.2 83% 30.02 0.0
29 16:55 SW 9 10.00 Overcast FEW055 BKN070 OVC080 71.6 66.2 83% 30.02 0.0
Date Time (edt) Wind (mph) Vis. (mi.) Weather Sky Cond. Air Dwpt Max. Min. Relative Humidity Wind Chill (°F) Heat Index (°F) altimeter (in) sea level (mb) 1 hr 3 hr 6 hr
6 hour
Temperature (ºF) Pressure Precipitation (in)